Hanover, Maine
Current Conditions -  °F | °C
As of 3:52 AM on Friday 24 Oct 2014 (Local Time) from KBML Reporting Station
Light Rain Light Rain  
Wind Chill: 44°   Ceiling: 1000
Heat Index: 44°   Visibility: 10mi
Dew Point: 42°   Wind: 3mph
Humidity: 93%   Direction: 340°NNW
Pressure: 29.73"   Gusts: NA
Location:  44.5°N, 70.69°W
Report Text: KBML 240752Z AUTO 34003KT 10SM -RA BKN010 OVC016 07/06 A2973 RMK AO2 SLP075 P0003 T00670056
Loading
Personal Weather Stations






























Interactive Weather Map
Tropical Storm Tracking
New forecast layout! Learn more

10-Day Weather Forecast

Advertisements
Track Severe Weather on mobile